Time;durP1;ratioP1;P1;durP2;ratioP2;P2;SDS_P1;SDS_P2;PMS_P1;PMS_P2;Temp;Humidity;BMP_temperature;BMP_pressure;BME280_temperature;BME280_humidity;BME280_pressure;Samples;Min_cycle;Max_cycle;Signal;HPM_P1;HPM_P2
2022/11/29 00:00:58;;;;;;;7.70;4.30;;;;;;;;;;1774935;80;21060;-62
2022/11/29 00:03:25;;;;;;;7.85;3.90;;;;;;;;;;1792338;80;21496;-62
2022/11/29 00:05:52;;;;;;;6.75;4.12;;;;;;;;;;1790505;80;21551;-61
2022/11/29 00:08:19;;;;;;;6.85;3.98;;;;;;;;;;1775661;80;20996;-63
2022/11/29 00:10:45;;;;;;;8.15;3.87;;;;;;;;;;1784165;79;21044;-62
2022/11/29 00:13:11;;;;;;;9.50;4.03;;;;;;;;;;1761247;80;21072;-62
2022/11/29 00:15:38;;;;;;;7.03;3.85;;;;;;;;;;1785525;80;21024;-62
2022/11/29 00:18:04;;;;;;;9.80;4.37;;;;;;;;;;1791603;80;20996;-62
2022/11/29 00:20:31;;;;;;;6.90;3.95;;;;;;;;;;1767603;80;21568;-62
2022/11/29 00:22:57;;;;;;;7.97;3.70;;;;;;;;;;1778799;80;21033;-62
2022/11/29 00:25:23;;;;;;;7.08;4.03;;;;;;;;;;1775124;80;20996;-62
2022/11/29 00:27:50;;;;;;;7.95;4.08;;;;;;;;;;1771501;80;21036;-62
2022/11/29 00:30:17;;;;;;;7.58;4.37;;;;;;;;;;1767564;80;21040;-63
2022/11/29 00:32:43;;;;;;;7.78;3.87;;;;;;;;;;1762522;80;21060;-62
2022/11/29 00:35:09;;;;;;;7.67;3.85;;;;;;;;;;1766511;80;21527;-62
2022/11/29 00:37:35;;;;;;;9.93;4.22;;;;;;;;;;1769258;80;21567;-62
2022/11/29 00:40:02;;;;;;;7.12;3.72;;;;;;;;;;1760744;81;22231;-62
2022/11/29 00:42:28;;;;;;;7.15;4.00;;;;;;;;;;1760956;81;20985;-62
2022/11/29 00:44:55;;;;;;;7.53;4.15;;;;;;;;;;1760960;81;21057;-62
2022/11/29 00:47:21;;;;;;;7.80;3.87;;;;;;;;;;1761589;80;22139;-63
2022/11/29 00:49:47;;;;;;;6.58;3.72;;;;;;;;;;1761249;81;21052;-62
2022/11/29 00:52:13;;;;;;;6.70;4.12;;;;;;;;;;1761091;81;21523;-62
2022/11/29 00:54:39;;;;;;;6.40;3.33;;;;;;;;;;1761047;81;21021;-63
2022/11/29 00:57:05;;;;;;;6.67;3.67;;;;;;;;;;1766948;80;21070;-63
2022/11/29 00:59:31;;;;;;;8.18;3.60;;;;;;;;;;1760762;81;21968;-64
2022/11/29 01:01:57;;;;;;;7.78;4.00;;;;;;;;;;1760846;81;21104;-62
2022/11/29 01:04:23;;;;;;;7.33;3.95;;;;;;;;;;1761154;81;21070;-62
2022/11/29 01:06:50;;;;;;;6.95;3.42;;;;;;;;;;1761381;80;21032;-64
2022/11/29 01:09:16;;;;;;;9.10;4.45;;;;;;;;;;1761431;81;21088;-63
2022/11/29 01:11:43;;;;;;;8.68;4.45;;;;;;;;;;1761530;81;22084;-61
2022/11/29 01:14:09;;;;;;;7.70;4.40;;;;;;;;;;1761196;81;21124;-61
2022/11/29 01:16:35;;;;;;;8.53;4.72;;;;;;;;;;1775073;80;21068;-62
2022/11/29 01:19:02;;;;;;;10.32;4.47;;;;;;;;;;1782820;80;21061;-62
2022/11/29 01:21:28;;;;;;;9.98;4.80;;;;;;;;;;1754356;81;21136;-63
2022/11/29 01:23:54;;;;;;;7.17;4.15;;;;;;;;;;1747870;82;21073;-62
2022/11/29 01:26:24;;;;;;;6.22;3.52;;;;;;;;;;1747906;82;21081;-62
2022/11/29 01:28:51;;;;;;;7.40;3.58;;;;;;;;;;1753931;81;21524;-62
2022/11/29 01:31:20;;;;;;;5.80;3.33;;;;;;;;;;1778248;80;21030;-61
2022/11/29 01:33:46;;;;;;;7.35;4.08;;;;;;;;;;1778910;80;21513;-62
2022/11/29 01:36:13;;;;;;;7.08;3.30;;;;;;;;;;1777994;81;21013;-61
2022/11/29 01:38:41;;;;;;;8.48;4.00;;;;;;;;;;1777849;80;21084;-61
2022/11/29 01:41:08;;;;;;;6.95;4.15;;;;;;;;;;1776063;80;21014;-60
2022/11/29 01:43:36;;;;;;;4.97;3.40;;;;;;;;;;1743145;81;21005;-63
2022/11/29 01:46:03;;;;;;;5.40;3.15;;;;;;;;;;1748751;81;21050;-61
2022/11/29 01:48:29;;;;;;;5.80;3.37;;;;;;;;;;1776882;81;21002;-62
2022/11/29 01:50:57;;;;;;;6.67;3.80;;;;;;;;;;1759110;81;21399;-62
2022/11/29 01:53:23;;;;;;;4.35;2.83;;;;;;;;;;1778269;80;21797;-62
2022/11/29 01:55:51;;;;;;;7.55;3.85;;;;;;;;;;1778164;81;21061;-62
2022/11/29 01:58:17;;;;;;;7.05;3.67;;;;;;;;;;1778567;81;21065;-62
2022/11/29 02:03:26;;;;;;;5.83;3.47;;;;;;;;;;1777936;78;21124;-62
2022/11/29 02:05:52;;;;;;;5.22;3.30;;;;;;;;;;1779993;79;21025;-62
2022/11/29 02:08:20;;;;;;;8.73;4.10;;;;;;;;;;1767886;81;21068;-61
2022/11/29 02:11:03;;;;;;;7.55;3.92;;;;;;;;;;1809874;79;21057;-62
2022/11/29 02:13:38;;;;;;;7.03;3.80;;;;;;;;;;1779652;79;21032;-62
2022/11/29 02:16:06;;;;;;;7.65;3.77;;;;;;;;;;1779798;79;21060;-62
2022/11/29 02:18:37;;;;;;;7.33;4.35;;;;;;;;;;1778640;81;21583;-62
2022/11/29 02:21:16;;;;;;;6.47;3.40;;;;;;;;;;1720140;80;21532;-62
2022/11/29 02:23:47;;;;;;;6.58;4.08;;;;;;;;;;1778838;81;21103;-63
2022/11/29 02:26:18;;;;;;;8.85;4.60;;;;;;;;;;1779286;81;21029;-63
2022/11/29 02:28:49;;;;;;;9.10;4.08;;;;;;;;;;1779066;81;21053;-63
2022/11/29 02:31:34;;;;;;;8.25;4.05;;;;;;;;;;1778166;80;21100;-63
2022/11/29 02:34:06;;;;;;;5.70;2.83;;;;;;;;;;1778966;81;21072;-63
2022/11/29 02:36:35;;;;;;;6.45;3.33;;;;;;;;;;1779115;81;21029;-63
2022/11/29 02:39:15;;;;;;;8.03;3.50;;;;;;;;;;1778927;81;21037;-61
2022/11/29 02:41:55;;;;;;;6.90;3.92;;;;;;;;;;1778787;80;21080;-61
2022/11/29 02:44:29;;;;;;;8.58;3.60;;;;;;;;;;1778957;80;21033;-61
2022/11/29 02:47:14;;;;;;;9.33;4.50;;;;;;;;;;1809873;79;21056;-62
2022/11/29 02:49:42;;;;;;;6.62;3.67;;;;;;;;;;1810898;79;21064;-62
2022/11/29 02:52:27;;;;;;;10.70;4.42;;;;;;;;;;1811058;79;21453;-61
2022/11/29 02:54:58;;;;;;;7.12;3.50;;;;;;;;;;1805477;79;22354;-63
2022/11/29 02:57:26;;;;;;;8.13;3.17;;;;;;;;;;1787261;79;21032;-61
2022/11/29 03:00:00;;;;;;;7.08;4.15;;;;;;;;;;1794710;79;21048;-61
2022/11/29 03:02:37;;;;;;;8.08;3.65;;;;;;;;;;1778857;81;21040;-61
2022/11/29 03:05:21;;;;;;;9.83;4.25;;;;;;;;;;1773731;80;21112;-62
2022/11/29 03:08:05;;;;;;;8.95;3.98;;;;;;;;;;1782409;80;21010;-62
2022/11/29 03:10:34;;;;;;;6.45;3.80;;;;;;;;;;1777775;81;21061;-61
2022/11/29 03:13:01;;;;;;;8.23;4.12;;;;;;;;;;1777603;81;21017;-61
2022/11/29 03:15:31;;;;;;;6.28;3.98;;;;;;;;;;1781999;80;21073;-62
2022/11/29 03:18:08;;;;;;;8.05;4.10;;;;;;;;;;1785360;80;21088;-61
2022/11/29 03:20:36;;;;;;;5.37;3.42;;;;;;;;;;1784015;79;21090;-62
2022/11/29 03:23:07;;;;;;;6.25;3.50;;;;;;;;;;1770206;81;20982;-62
2022/11/29 03:25:35;;;;;;;6.78;3.40;;;;;;;;;;1771595;79;21065;-62
2022/11/29 03:28:06;;;;;;;7.42;3.50;;;;;;;;;;1808545;79;21017;-62
2022/11/29 03:30:33;;;;;;;5.50;3.40;;;;;;;;;;1809310;79;20989;-62
2022/11/29 05:55:41;;;;;;;6.25;3.52;;;;;;;;;;1815514;77;22069;-65
2022/11/29 05:58:09;;;;;;;6.95;3.90;;;;;;;;;;1767913;80;21028;-65
2022/11/29 06:00:52;;;;;;;6.95;4.10;;;;;;;;;;1761731;80;21444;-66
2022/11/29 06:03:27;;;;;;;5.45;3.30;;;;;;;;;;1778890;80;21040;-66
2022/11/29 06:05:57;;;;;;;8.48;4.30;;;;;;;;;;1769873;80;21044;-65
2022/11/29 06:08:25;;;;;;;7.87;3.83;;;;;;;;;;1760680;80;21059;-66
2022/11/29 06:10:53;;;;;;;7.60;3.92;;;;;;;;;;1780491;80;21032;-65
2022/11/29 06:13:21;;;;;;;8.03;3.75;;;;;;;;;;1778458;78;21056;-66
2022/11/29 06:16:06;;;;;;;6.47;3.52;;;;;;;;;;1784603;80;21178;-65
2022/11/29 06:18:49;;;;;;;5.83;3.70;;;;;;;;;;1769019;78;21044;-65
2022/11/29 06:21:17;;;;;;;6.93;3.47;;;;;;;;;;1787584;80;21076;-66
2022/11/29 06:24:02;;;;;;;5.53;3.50;;;;;;;;;;1781871;80;21090;-65
2022/11/29 06:26:33;;;;;;;7.45;3.83;;;;;;;;;;1759714;81;21531;-66
2022/11/29 06:29:05;;;;;;;7.67;4.00;;;;;;;;;;1770859;80;21496;-66
2022/11/29 06:31:33;;;;;;;8.00;4.08;;;;;;;;;;1778409;80;21433;-66
2022/11/29 06:34:10;;;;;;;7.03;4.25;;;;;;;;;;1745272;80;21255;-66
2022/11/29 06:36:47;;;;;;;7.65;4.00;;;;;;;;;;1783124;80;21039;-66
2022/11/29 06:39:14;;;;;;;7.03;4.30;;;;;;;;;;1780946;80;21878;-66
2022/11/29 06:41:40;;;;;;;6.05;3.92;;;;;;;;;;1783066;80;21048;-66
2022/11/29 06:44:06;;;;;;;8.93;4.28;;;;;;;;;;1787916;80;20973;-66
2022/11/29 06:46:38;;;;;;;7.17;4.03;;;;;;;;;;1772072;79;21010;-66
2022/11/29 06:49:07;;;;;;;10.60;5.08;;;;;;;;;;1772081;80;21025;-66
2022/11/29 06:51:48;;;;;;;7.30;4.20;;;;;;;;;;1773572;80;21028;-65
2022/11/29 07:08:24;;;;;;;7.50;4.33;;;;;;;;;;1812544;77;23285;-65
2022/11/29 07:10:52;;;;;;;7.22;4.30;;;;;;;;;;1778166;80;21157;-65
2022/11/29 07:13:18;;;;;;;13.05;5.25;;;;;;;;;;1789993;79;21017;-65
2022/11/29 07:15:49;;;;;;;8.58;4.20;;;;;;;;;;1792155;80;21512;-65
2022/11/29 07:18:20;;;;;;;13.28;5.05;;;;;;;;;;1792231;80;21060;-65
2022/11/29 07:20:52;;;;;;;7.65;3.92;;;;;;;;;;1791220;80;21067;-65
2022/11/29 07:23:26;;;;;;;7.33;4.45;;;;;;;;;;1791883;80;21512;-66
2022/11/29 07:26:09;;;;;;;8.58;4.50;;;;;;;;;;1783164;80;21091;-64
2022/11/29 07:28:43;;;;;;;7.70;4.23;;;;;;;;;;1771068;80;21108;-64
2022/11/29 07:31:20;;;;;;;9.10;4.58;;;;;;;;;;1761949;80;21469;-64
2022/11/29 07:33:48;;;;;;;10.28;4.45;;;;;;;;;;1782434;78;21067;-63
2022/11/29 07:36:22;;;;;;;9.45;4.87;;;;;;;;;;1778969;80;21087;-63
2022/11/29 07:39:06;;;;;;;10.88;4.85;;;;;;;;;;1789693;80;21036;-65
2022/11/29 07:41:37;;;;;;;9.50;4.75;;;;;;;;;;1788685;79;21096;-66
2022/11/29 07:44:17;;;;;;;12.68;5.72;;;;;;;;;;1788947;80;21068;-66
2022/11/29 07:46:43;;;;;;;9.45;5.45;;;;;;;;;;1781055;80;21047;-64
2022/11/29 07:49:10;;;;;;;8.93;4.97;;;;;;;;;;1777415;79;21512;-65
2022/11/29 07:51:36;;;;;;;12.80;5.62;;;;;;;;;;1771576;79;21032;-65
2022/11/29 07:54:02;;;;;;;11.95;6.05;;;;;;;;;;1776010;80;21038;-65
2022/11/29 07:56:28;;;;;;;9.03;4.75;;;;;;;;;;1769475;80;21056;-64
2022/11/29 07:58:55;;;;;;;10.10;5.00;;;;;;;;;;1733232;81;21069;-64
2022/11/29 08:01:20;;;;;;;9.65;4.85;;;;;;;;;;1739772;81;21425;-65
2022/11/29 08:03:47;;;;;;;8.98;4.92;;;;;;;;;;1757382;81;21039;-66
2022/11/29 08:06:13;;;;;;;8.78;4.00;;;;;;;;;;1751429;81;21121;-66
2022/11/29 08:08:40;;;;;;;10.08;5.20;;;;;;;;;;1734609;81;21108;-65
2022/11/29 08:11:09;;;;;;;9.85;5.60;;;;;;;;;;1715489;82;20989;-66
2022/11/29 08:13:38;;;;;;;9.63;4.60;;;;;;;;;;1721843;82;20973;-66
2022/11/29 08:16:04;;;;;;;9.33;4.80;;;;;;;;;;1730805;81;20993;-65
2022/11/29 08:18:30;;;;;;;8.80;4.97;;;;;;;;;;1729099;81;21009;-66
2022/11/29 08:20:56;;;;;;;11.68;4.95;;;;;;;;;;1728597;81;21015;-64
2022/11/29 08:23:22;;;;;;;8.85;4.62;;;;;;;;;;1731929;82;21008;-66
2022/11/29 08:25:48;;;;;;;9.28;5.03;;;;;;;;;;1731779;81;21581;-65
2022/11/29 08:28:14;;;;;;;8.68;4.25;;;;;;;;;;1723521;81;21023;-66
2022/11/29 08:30:40;;;;;;;9.20;4.78;;;;;;;;;;1731218;82;21025;-65
2022/11/29 08:33:06;;;;;;;11.18;4.72;;;;;;;;;;1720126;82;21064;-64
2022/11/29 08:35:33;;;;;;;9.45;5.35;;;;;;;;;;1717330;81;22092;-65
2022/11/29 08:37:59;;;;;;;12.73;5.12;;;;;;;;;;1736331;82;20993;-65
2022/11/29 08:40:25;;;;;;;8.28;4.58;;;;;;;;;;1733203;82;21088;-65
2022/11/29 08:42:54;;;;;;;10.58;4.97;;;;;;;;;;1727741;82;21048;-65
2022/11/29 08:45:19;;;;;;;8.58;4.50;;;;;;;;;;1670910;85;21010;-66
2022/11/29 08:47:46;;;;;;;8.00;4.47;;;;;;;;;;1733704;81;21503;-63
2022/11/29 08:50:16;;;;;;;11.00;5.20;;;;;;;;;;1721649;82;21056;-65
2022/11/29 08:55:30;;;;;;;11.18;4.85;;;;;;;;;;1727037;82;21070;-65
2022/11/29 08:57:57;;;;;;;11.43;5.62;;;;;;;;;;1722839;82;21084;-65
2022/11/29 09:00:24;;;;;;;9.45;4.40;;;;;;;;;;1731729;82;21033;-66
2022/11/29 09:02:50;;;;;;;10.88;5.00;;;;;;;;;;1739865;82;21001;-64
2022/11/29 09:05:16;;;;;;;12.05;5.58;;;;;;;;;;1741466;82;21065;-64
2022/11/29 09:07:43;;;;;;;8.30;4.70;;;;;;;;;;1723838;82;21011;-65
2022/11/29 09:10:10;;;;;;;12.28;5.58;;;;;;;;;;1724723;82;21507;-63
2022/11/29 09:12:37;;;;;;;9.60;5.17;;;;;;;;;;1737787;82;21018;-64
2022/11/29 09:15:04;;;;;;;12.78;5.00;;;;;;;;;;1735191;82;21065;-65
2022/11/29 09:17:31;;;;;;;11.75;5.65;;;;;;;;;;1740150;82;21125;-64
2022/11/29 09:19:56;;;;;;;10.70;5.12;;;;;;;;;;1731746;82;20997;-65
2022/11/29 09:22:23;;;;;;;10.13;5.08;;;;;;;;;;1745627;82;21060;-65
2022/11/29 09:24:49;;;;;;;9.65;5.80;;;;;;;;;;1728993;82;20976;-65
2022/11/29 09:27:15;;;;;;;9.75;4.60;;;;;;;;;;1719431;83;21048;-64
2022/11/29 09:29:41;;;;;;;10.88;5.22;;;;;;;;;;1733089;82;21030;-64
2022/11/29 09:32:08;;;;;;;11.05;5.20;;;;;;;;;;1744281;82;21532;-65
2022/11/29 09:34:34;;;;;;;10.40;5.58;;;;;;;;;;1738305;82;21048;-65
2022/11/29 09:37:01;;;;;;;13.05;5.53;;;;;;;;;;1745257;82;20993;-65
2022/11/29 09:39:27;;;;;;;10.80;5.17;;;;;;;;;;1740751;82;21121;-65
2022/11/29 09:42:08;;;;;;;11.25;6.28;;;;;;;;;;1748602;82;21048;-65
2022/11/29 09:44:39;;;;;;;12.63;5.53;;;;;;;;;;1727409;82;21059;-64
2022/11/29 09:47:25;;;;;;;14.73;5.28;;;;;;;;;;1753299;80;22095;-66
2022/11/29 09:49:56;;;;;;;14.23;5.22;;;;;;;;;;1672149;84;21061;-66
2022/11/29 09:52:27;;;;;;;11.10;5.37;;;;;;;;;;1736242;82;21091;-66
2022/11/29 09:55:12;;;;;;;9.08;4.78;;;;;;;;;;1732052;82;21025;-66
2022/11/29 09:57:38;;;;;;;11.55;5.65;;;;;;;;;;1732495;80;21829;-65
2022/11/29 10:00:05;;;;;;;11.63;5.70;;;;;;;;;;1738774;82;21035;-65
2022/11/29 10:02:33;;;;;;;11.33;5.58;;;;;;;;;;1734268;80;22025;-66
2022/11/29 10:05:04;;;;;;;7.05;4.50;;;;;;;;;;1739606;80;21571;-65
2022/11/29 10:07:33;;;;;;;9.88;5.85;;;;;;;;;;1736904;80;21059;-65
2022/11/29 10:10:10;;;;;;;11.57;5.03;;;;;;;;;;1737229;80;21701;-66
2022/11/29 10:12:41;;;;;;;9.48;4.72;;;;;;;;;;1736944;80;21095;-66
2022/11/29 10:15:19;;;;;;;14.13;5.80;;;;;;;;;;1743351;80;21111;-64
2022/11/29 10:17:58;;;;;;;13.93;6.10;;;;;;;;;;1736418;80;21058;-69
2022/11/29 10:20:25;;;;;;;10.40;5.35;;;;;;;;;;1738463;80;21039;-67
2022/11/29 10:22:59;;;;;;;10.48;5.55;;;;;;;;;;1731961;82;20969;-67
2022/11/29 10:25:27;;;;;;;12.13;6.17;;;;;;;;;;1725723;82;21515;-66
2022/11/29 10:27:53;;;;;;;10.18;5.47;;;;;;;;;;1732874;82;21000;-65
2022/11/29 10:30:19;;;;;;;10.98;5.10;;;;;;;;;;1685717;83;21033;-65
2022/11/29 10:32:46;;;;;;;10.25;5.65;;;;;;;;;;1691595;83;21025;-65
2022/11/29 10:35:13;;;;;;;16.93;8.13;;;;;;;;;;1733991;82;21039;-65
2022/11/29 10:37:39;;;;;;;14.05;7.17;;;;;;;;;;1742179;82;21487;-67
2022/11/29 10:40:09;;;;;;;14.13;6.72;;;;;;;;;;1734341;80;21049;-67
2022/11/29 10:42:53;;;;;;;10.98;5.65;;;;;;;;;;1738667;80;21029;-65
2022/11/29 10:45:19;;;;;;;;;;;;;;;;;;1717280;82;21027;-65
2022/11/29 10:47:45;;;;;;;10.55;6.62;;;;;;;;;;1685472;84;20125;-67
2022/11/29 10:50:16;;;;;;;14.58;7.28;;;;;;;;;;1738967;82;21282;-65
2022/11/29 11:06:45;;;;;;;13.70;6.22;;;;;;;;;;1813813;77;22137;-65
2022/11/29 11:09:19;;;;;;;11.18;6.05;;;;;;;;;;1784681;78;21555;-65
2022/11/29 11:11:49;;;;;;;12.35;5.67;;;;;;;;;;1791096;80;21072;-65
2022/11/29 11:14:23;;;;;;;13.62;5.85;;;;;;;;;;1782500;80;21038;-63
2022/11/29 11:16:50;;;;;;;11.38;6.17;;;;;;;;;;1741121;81;21029;-64
2022/11/29 11:19:30;;;;;;;13.03;5.70;;;;;;;;;;1721250;82;21065;-64
2022/11/29 11:22:02;;;;;;;9.20;5.10;;;;;;;;;;1727908;82;20984;-64
2022/11/29 11:24:30;;;;;;;13.28;6.22;;;;;;;;;;1743547;82;22194;-64
2022/11/29 11:26:56;;;;;;;10.38;6.15;;;;;;;;;;1737724;81;21110;-65
2022/11/29 11:29:25;;;;;;;12.55;6.03;;;;;;;;;;1721202;81;21041;-65
2022/11/29 11:31:53;;;;;;;11.95;5.90;;;;;;;;;;1721665;81;21048;-65
2022/11/29 11:34:25;;;;;;;12.05;6.70;;;;;;;;;;1724193;81;21514;-65
2022/11/29 11:36:57;;;;;;;13.05;5.90;;;;;;;;;;1719566;81;21025;-65
2022/11/29 11:39:20;;;;;;;11.95;6.83;;;;;;;;;;1720885;81;21062;-65
2022/11/29 11:44:35;;;;;;;13.68;6.58;;;;;;;;;;1722964;81;21078;-64
2022/11/29 11:47:01;;;;;;;12.70;7.03;;;;;;;;;;1729693;81;21071;-64
2022/11/29 11:49:29;;;;;;;12.98;6.47;;;;;;;;;;1714666;82;21095;-65
2022/11/29 11:51:58;;;;;;;16.45;6.80;;;;;;;;;;1730193;81;20995;-65
2022/11/29 11:54:24;;;;;;;11.00;5.53;;;;;;;;;;1712859;82;21413;-65
2022/11/29 11:56:51;;;;;;;14.68;6.37;;;;;;;;;;1696864;81;21582;-65
2022/11/29 11:59:18;;;;;;;11.55;6.15;;;;;;;;;;1691549;83;21839;-65
2022/11/29 12:01:45;;;;;;;10.82;5.70;;;;;;;;;;1687667;83;22176;-66
2022/11/29 12:04:28;;;;;;;12.13;6.70;;;;;;;;;;1688008;83;21537;-64
2022/11/29 12:06:55;;;;;;;14.83;6.28;;;;;;;;;;1695781;82;21086;-64
2022/11/29 12:09:35;;;;;;;11.75;6.40;;;;;;;;;;1689337;81;21539;-64
2022/11/29 12:12:17;;;;;;;12.30;6.33;;;;;;;;;;1692233;83;21048;-65
2022/11/29 12:14:50;;;;;;;14.47;7.10;;;;;;;;;;1694374;83;21060;-65
2022/11/29 12:17:34;;;;;;;13.60;7.58;;;;;;;;;;1689149;83;21595;-63
2022/11/29 12:20:08;;;;;;;11.53;5.50;;;;;;;;;;1694798;84;21094;-63
2022/11/29 12:22:40;;;;;;;11.75;6.22;;;;;;;;;;1696976;84;21587;-64
2022/11/29 12:25:08;;;;;;;10.30;5.78;;;;;;;;;;1688087;84;21567;-63
2022/11/29 12:27:35;;;;;;;10.18;5.37;;;;;;;;;;1698682;84;21157;-62
2022/11/29 12:30:01;;;;;;;10.53;6.10;;;;;;;;;;1685819;84;21029;-64
2022/11/29 12:32:35;;;;;;;11.50;5.72;;;;;;;;;;1687912;84;21591;-64
2022/11/29 12:35:03;;;;;;;12.00;6.03;;;;;;;;;;1677481;84;21084;-63
2022/11/29 12:37:34;;;;;;;11.57;5.83;;;;;;;;;;1693260;84;21025;-63
2022/11/29 12:40:02;;;;;;;12.18;6.80;;;;;;;;;;1689963;84;21065;-63
2022/11/29 12:42:39;;;;;;;9.33;5.65;;;;;;;;;;1685208;84;21064;-63
2022/11/29 12:45:24;;;;;;;13.98;6.45;;;;;;;;;;1686379;84;21534;-64
2022/11/29 12:48:09;;;;;;;14.63;6.97;;;;;;;;;;1690687;84;21040;-64
2022/11/29 12:50:54;;;;;;;12.13;5.87;;;;;;;;;;1689526;84;21127;-63
2022/11/29 12:53:22;;;;;;;16.10;7.03;;;;;;;;;;1686341;84;21112;-62
2022/11/29 12:56:07;;;;;;;14.07;6.45;;;;;;;;;;1687963;84;21108;-65
2022/11/29 12:58:41;;;;;;;13.00;5.58;;;;;;;;;;1688461;84;21112;-64
2022/11/29 13:01:09;;;;;;;13.55;6.25;;;;;;;;;;1688715;84;21591;-64
2022/11/29 13:03:49;;;;;;;14.43;7.08;;;;;;;;;;1689490;84;21578;-63
2022/11/29 13:06:17;;;;;;;14.23;7.00;;;;;;;;;;1683044;84;21116;-63
2022/11/29 13:08:48;;;;;;;14.80;6.65;;;;;;;;;;1671892;85;21042;-64
2022/11/29 13:11:16;;;;;;;15.65;7.85;;;;;;;;;;1651789;85;22127;-64
2022/11/29 13:13:48;;;;;;;13.50;7.03;;;;;;;;;;1669895;83;21092;-63
2022/11/29 13:16:19;;;;;;;13.95;8.50;;;;;;;;;;1671678;85;21049;-64
2022/11/29 13:19:00;;;;;;;17.87;9.25;;;;;;;;;;1673933;85;21762;-64
2022/11/29 13:21:34;;;;;;;21.23;8.80;;;;;;;;;;1672322;85;21045;-64
2022/11/29 13:24:03;;;;;;;13.80;7.92;;;;;;;;;;1671249;85;21097;-64
2022/11/29 13:26:29;;;;;;;13.70;6.97;;;;;;;;;;1674203;83;21113;-64
2022/11/29 13:28:55;;;;;;;12.63;6.33;;;;;;;;;;1674200;83;21065;-64
2022/11/29 13:31:22;;;;;;;15.78;6.78;;;;;;;;;;1673237;85;21778;-63
2022/11/29 13:33:56;;;;;;;12.93;5.78;;;;;;;;;;1676059;85;21041;-67
2022/11/29 13:36:24;;;;;;;9.80;5.42;;;;;;;;;;1672631;83;21025;-66
2022/11/29 13:38:55;;;;;;;10.30;5.80;;;;;;;;;;1702156;83;21574;-66
2022/11/29 13:41:23;;;;;;;13.45;6.20;;;;;;;;;;1676963;84;21043;-65
2022/11/29 13:43:51;;;;;;;10.98;6.28;;;;;;;;;;1688017;84;21047;-65
2022/11/29 13:46:30;;;;;;;11.57;6.60;;;;;;;;;;1688711;84;22418;-68
2022/11/29 13:48:56;;;;;;;12.23;6.10;;;;;;;;;;1698420;83;22163;-66
2022/11/29 13:51:33;;;;;;;13.18;6.53;;;;;;;;;;1700274;83;21048;-66
2022/11/29 13:54:01;;;;;;;13.75;6.85;;;;;;;;;;1705966;83;21098;-63
2022/11/29 13:56:32;;;;;;;14.33;6.62;;;;;;;;;;1702002;83;21009;-62
2022/11/29 13:59:00;;;;;;;15.55;7.25;;;;;;;;;;1687544;84;21072;-63
2022/11/29 14:01:26;;;;;;;16.77;6.67;;;;;;;;;;1682808;83;21005;-63
2022/11/29 14:04:06;;;;;;;14.50;7.10;;;;;;;;;;1689068;84;21235;-63
2022/11/29 14:06:32;;;;;;;12.07;6.80;;;;;;;;;;1689399;84;21049;-64
2022/11/29 14:09:15;;;;;;;12.82;6.53;;;;;;;;;;1684098;83;21017;-64
2022/11/29 14:12:01;;;;;;;11.65;6.05;;;;;;;;;;1678964;83;21048;-63
2022/11/29 14:14:39;;;;;;;9.78;4.95;;;;;;;;;;1678980;83;21031;-62
2022/11/29 14:17:06;;;;;;;11.50;5.80;;;;;;;;;;1675134;85;21096;-63
2022/11/29 14:19:33;;;;;;;11.10;4.92;;;;;;;;;;1678727;83;21088;-62
2022/11/29 14:22:01;;;;;;;10.08;5.00;;;;;;;;;;1681471;84;21084;-63
2022/11/29 14:24:35;;;;;;;11.15;5.72;;;;;;;;;;1721741;81;21041;-63
2022/11/29 14:29:51;;;;;;;16.07;6.03;;;;;;;;;;1720362;82;21022;-62
2022/11/29 14:32:23;;;;;;;10.15;5.30;;;;;;;;;;1723478;82;21028;-63
2022/11/29 14:34:51;;;;;;;9.85;5.12;;;;;;;;;;1725640;81;21028;-63
2022/11/29 14:37:31;;;;;;;14.25;6.35;;;;;;;;;;1726375;82;21064;-64
2022/11/29 14:39:57;;;;;;;8.83;5.12;;;;;;;;;;1727763;82;21089;-63
2022/11/29 14:42:24;;;;;;;12.20;6.03;;;;;;;;;;1723074;82;22134;-66
2022/11/29 14:44:52;;;;;;;10.85;5.90;;;;;;;;;;1666251;84;21173;-65
2022/11/29 14:47:23;;;;;;;15.13;6.85;;;;;;;;;;1725096;82;21052;-65
2022/11/29 14:49:49;;;;;;;14.87;7.22;;;;;;;;;;1725024;82;21033;-65
2022/11/29 14:52:17;;;;;;;13.50;7.65;;;;;;;;;;1726573;81;21001;-65
2022/11/29 14:54:54;;;;;;;14.93;6.72;;;;;;;;;;1731278;81;21553;-66
2022/11/29 14:57:38;;;;;;;12.45;7.10;;;;;;;;;;1728917;81;20949;-65
2022/11/29 15:00:07;;;;;;;13.68;7.28;;;;;;;;;;1726499;81;20974;-66
2022/11/29 15:02:35;;;;;;;14.58;7.12;;;;;;;;;;1665191;84;20927;-65
2022/11/29 15:05:06;;;;;;;14.58;6.70;;;;;;;;;;1731318;80;21091;-66
2022/11/29 15:07:32;;;;;;;9.78;5.62;;;;;;;;;;1737246;80;21604;-65
2022/11/29 15:09:59;;;;;;;11.75;5.72;;;;;;;;;;1747261;80;22160;-63
2022/11/29 15:15:32;;;;;;;10.55;5.92;;;;;;;;;;1763326;78;79443;-65
2022/11/29 15:18:04;;;;;;;13.38;6.47;;;;;;;;;;1740139;81;20996;-65
2022/11/29 15:20:36;;;;;;;9.33;5.53;;;;;;;;;;1735833;81;21039;-63
2022/11/29 15:23:07;;;;;;;10.45;5.95;;;;;;;;;;1747827;81;21546;-63
2022/11/29 15:25:33;;;;;;;11.63;6.03;;;;;;;;;;1748224;81;21546;-64
2022/11/29 15:28:00;;;;;;;10.70;6.65;;;;;;;;;;1737240;81;21030;-64
2022/11/29 15:30:28;;;;;;;11.25;7.05;;;;;;;;;;1733312;81;21020;-65
2022/11/29 15:32:55;;;;;;;16.25;6.92;;;;;;;;;;1734901;81;20990;-64
2022/11/29 15:35:21;;;;;;;11.45;6.53;;;;;;;;;;1736628;81;20997;-65
2022/11/29 15:37:47;;;;;;;9.15;5.37;;;;;;;;;;1733427;81;21578;-65
2022/11/29 15:40:18;;;;;;;15.13;6.65;;;;;;;;;;1736141;81;21064;-65
2022/11/29 15:42:52;;;;;;;12.95;5.85;;;;;;;;;;1746837;81;21040;-66
2022/11/29 15:45:20;;;;;;;9.78;5.83;;;;;;;;;;1731807;81;21110;-66
2022/11/29 15:47:46;;;;;;;12.88;6.83;;;;;;;;;;1723623;81;21076;-66
2022/11/29 15:50:24;;;;;;;12.50;6.05;;;;;;;;;;1741484;81;21027;-67
2022/11/29 15:52:51;;;;;;;10.53;6.00;;;;;;;;;;1752032;81;21591;-67
2022/11/29 15:55:17;;;;;;;13.85;6.08;;;;;;;;;;1739882;81;21070;-67
2022/11/29 15:57:44;;;;;;;11.38;5.78;;;;;;;;;;1743073;81;20984;-66
2022/11/29 16:00:15;;;;;;;9.85;5.65;;;;;;;;;;1751919;81;21059;-66
2022/11/29 16:02:43;;;;;;;13.03;6.00;;;;;;;;;;1746449;81;21285;-67
2022/11/29 16:05:10;;;;;;;10.10;5.78;;;;;;;;;;1742673;81;20968;-68
2022/11/29 16:07:36;;;;;;;12.37;5.60;;;;;;;;;;1741037;81;21036;-65
2022/11/29 16:10:04;;;;;;;10.50;5.55;;;;;;;;;;1735588;81;21559;-65
2022/11/29 16:12:35;;;;;;;12.50;6.55;;;;;;;;;;1716023;81;21049;-66
2022/11/29 16:14:59;;;;;;;15.80;6.00;;;;;;;;;;1707570;82;21535;-64
2022/11/29 16:17:26;;;;;;;9.10;5.28;;;;;;;;;;1702843;82;21032;-64
2022/11/29 16:19:54;;;;;;;11.18;5.53;;;;;;;;;;1704208;84;21518;-64
2022/11/29 16:22:22;;;;;;;10.45;5.87;;;;;;;;;;1703852;82;21574;-64
2022/11/29 16:24:52;;;;;;;8.80;5.05;;;;;;;;;;1703512;82;21011;-65
2022/11/29 16:27:19;;;;;;;9.20;5.30;;;;;;;;;;1704317;84;21028;-65
2022/11/29 16:29:46;;;;;;;10.93;5.80;;;;;;;;;;1705492;82;21091;-66
2022/11/29 16:32:20;;;;;;;10.80;5.28;;;;;;;;;;1703504;82;21048;-63
2022/11/29 16:34:46;;;;;;;11.57;5.42;;;;;;;;;;1705393;82;21735;-62
2022/11/29 16:37:14;;;;;;;9.48;5.28;;;;;;;;;;1701798;82;21581;-64
2022/11/29 16:39:42;;;;;;;10.35;5.65;;;;;;;;;;1702823;82;21078;-64
2022/11/29 16:42:15;;;;;;;12.00;5.40;;;;;;;;;;1701139;82;21070;-65
2022/11/29 16:44:46;;;;;;;8.93;4.97;;;;;;;;;;1702825;82;21131;-64
2022/11/29 16:47:19;;;;;;;7.85;4.75;;;;;;;;;;1703084;82;21128;-64
2022/11/29 16:49:47;;;;;;;11.15;4.95;;;;;;;;;;1702068;82;21090;-63
2022/11/29 16:52:24;;;;;;;10.45;5.50;;;;;;;;;;1700665;82;21168;-64
2022/11/29 16:54:50;;;;;;;10.18;5.40;;;;;;;;;;1704080;82;21538;-63
2022/11/29 16:57:16;;;;;;;9.90;5.60;;;;;;;;;;1704113;82;21076;-64
2022/11/29 16:59:42;;;;;;;11.05;4.90;;;;;;;;;;1704184;82;21071;-64
2022/11/29 17:02:10;;;;;;;9.93;5.08;;;;;;;;;;1703229;82;21093;-63
2022/11/29 17:04:36;;;;;;;9.23;4.60;;;;;;;;;;1703496;82;21032;-64
2022/11/29 17:07:02;;;;;;;10.20;5.58;;;;;;;;;;1705694;82;20979;-64
2022/11/29 17:09:30;;;;;;;11.38;5.40;;;;;;;;;;1672450;82;21371;-65
2022/11/29 17:12:00;;;;;;;7.42;4.65;;;;;;;;;;1702894;82;21079;-64
2022/11/29 17:14:28;;;;;;;8.78;4.58;;;;;;;;;;1702068;82;21925;-64
2022/11/29 17:16:54;;;;;;;9.45;4.92;;;;;;;;;;1701552;82;21059;-63
2022/11/29 17:19:21;;;;;;;11.25;5.80;;;;;;;;;;1702792;82;21517;-64
2022/11/29 17:21:48;;;;;;;8.35;4.53;;;;;;;;;;1702953;82;21027;-65
2022/11/29 17:24:16;;;;;;;8.13;4.83;;;;;;;;;;1703379;82;21069;-63
2022/11/29 17:26:42;;;;;;;7.22;3.90;;;;;;;;;;1705437;82;21600;-63
2022/11/29 17:29:09;;;;;;;10.05;4.55;;;;;;;;;;1702141;82;21123;-64
2022/11/29 17:31:35;;;;;;;11.00;5.60;;;;;;;;;;1702225;82;21043;-65
2022/11/29 17:34:01;;;;;;;10.18;5.50;;;;;;;;;;1704257;82;21083;-64
2022/11/29 17:36:28;;;;;;;6.55;4.55;;;;;;;;;;1702884;82;21090;-64
2022/11/29 17:38:54;;;;;;;8.33;4.37;;;;;;;;;;1702656;82;21606;-65
2022/11/29 17:41:21;;;;;;;9.58;4.17;;;;;;;;;;1701931;82;21035;-64
2022/11/29 17:43:50;;;;;;;7.15;4.15;;;;;;;;;;1700325;82;21577;-64
2022/11/29 17:46:17;;;;;;;8.65;4.95;;;;;;;;;;1701391;82;21063;-64
2022/11/29 17:48:45;;;;;;;6.75;4.25;;;;;;;;;;1704026;82;21035;-64
2022/11/29 17:51:12;;;;;;;7.28;3.70;;;;;;;;;;1702343;82;21094;-65
2022/11/29 17:53:38;;;;;;;8.88;4.83;;;;;;;;;;1704082;82;21086;-65
2022/11/29 17:56:04;;;;;;;6.22;3.77;;;;;;;;;;1708826;82;21543;-65